Disclaimer

Please do not use the information listed here in-flight or in-navigation, as they are not provided to us by the airports but are provided by volunteers, so they might be outdated.

Search


Regions


Airport information page

Radio informations:
Tower (TWR) - 118.65 MHz
INFO - 129.875 MHz
Ground (GND) - 121.875 MHz
Automatic Terminal Information Service (ATIS) - 126.925 MHz
Approach (APP) - 130.275 MHz

Airport informations:
Latitude: 47° 09' 11.48" N
Longitude: 001° 36' 38.61" W
Elevation: 90 feet - 27 meters
Operating hours: 24 hour operations
Operating agency: Civil government, landing fees and diplomatic clearance may be required
Timezone: UTC+1(+2DT) - Last Sunday in March to last Sunday in October
Fuel: Jet A1, without icing nhibitor.

100/130 MIL Spec, low lead, aviation gasoline (BLUE)

Runway information:
03/21 - 9514 x 148 feet< - >2900 x 45 meters

Recent METARs:
LFRS 210230Z AUTO 14006KT 5000 BR NSC M02/M02 Q1006 TEMPO 0600 FZFG BKN001
LFRS 210300Z AUTO 14005KT 5000 BR BKN044 M01/M02 Q1006 TEMPO 0600 FZFG BKN001
LFRS 210330Z AUTO 14007KT 6000 FEW033 M01/M01 Q1007 TEMPO 3000 BR

Airport on the map: